createdAt,value
2019-02-11T00:01:44.332Z,99515.28
2019-02-11T00:04:12.766Z,99520.58
2019-02-11T00:06:41.169Z,99533.34
2019-02-11T00:09:09.968Z,99539.97
2019-02-11T00:11:38.381Z,99542.88
2019-02-11T00:14:06.773Z,99555.12
2019-02-11T00:16:35.188Z,99554.48
2019-02-11T00:19:03.620Z,99567.06
2019-02-11T00:21:32.040Z,99569.09
2019-02-11T00:24:00.484Z,99572.15
2019-02-11T00:26:28.896Z,99578.63
2019-02-11T00:28:57.306Z,99583.40
2019-02-11T00:31:25.826Z,99591.06
2019-02-11T00:33:54.212Z,99590.03
2019-02-11T00:36:22.652Z,99583.22
2019-02-11T00:38:51.096Z,99594.30
2019-02-11T00:41:19.482Z,99600.06
2019-02-11T00:43:47.925Z,99603.32
2019-02-11T00:46:16.376Z,99605.87
2019-02-11T00:48:44.786Z,99600.06
2019-02-11T00:51:13.195Z,99601.09
2019-02-11T00:53:41.620Z,99601.42
2019-02-11T00:56:10.038Z,99608.94
2019-02-11T00:58:38.474Z,99603.50
2019-02-11T01:01:06.894Z,99606.04
2019-02-11T01:03:35.324Z,99607.91
2019-02-11T01:06:03.740Z,99622.53
2019-02-11T01:08:32.168Z,99626.64
2019-02-11T01:11:00.622Z,99636.50
2019-02-11T01:13:29.044Z,99638.90
2019-02-11T01:15:57.452Z,99647.22
2019-02-11T01:18:25.887Z,99646.20
2019-02-11T01:20:54.325Z,99650.44
2019-02-11T01:23:22.759Z,99658.97
2019-02-11T01:25:51.214Z,99662.22
2019-02-11T01:28:19.624Z,99663.91
2019-02-11T01:30:48.066Z,99664.23
2019-02-11T01:33:16.500Z,99674.30
2019-02-11T01:35:44.910Z,99671.05
2019-02-11T01:38:13.326Z,99679.22
2019-02-11T01:40:41.769Z,99685.02
2019-02-11T01:43:10.202Z,99682.65
2019-02-11T01:45:38.621Z,99687.39
2019-02-11T01:48:07.053Z,99690.97
2019-02-11T01:50:35.454Z,99692.18
2019-02-11T01:53:03.896Z,99695.55
2019-02-11T01:55:32.315Z,99691.14
2019-02-11T01:58:00.744Z,99691.64
2019-02-11T02:00:29.254Z,99684.16
2019-02-11T02:02:57.656Z,99682.80
2019-02-11T02:05:26.072Z,99685.88
2019-02-11T02:07:54.506Z,99683.30
2019-02-11T02:10:22.940Z,99684.52
2019-02-11T02:12:51.348Z,99688.59
2019-02-11T02:15:19.772Z,99691.47
2019-02-11T02:17:48.178Z,99689.28
2019-02-11T02:20:16.599Z,99692.68
2019-02-11T02:22:45.003Z,99690.63
2019-02-11T02:25:13.429Z,99693.89
2019-02-11T02:27:41.841Z,99710.05
2019-02-11T02:30:13.959Z,99705.09
2019-02-11T02:32:42.373Z,99704.78
2019-02-11T02:35:10.820Z,99703.58
2019-02-11T02:37:39.226Z,99712.09
2019-02-11T02:40:09.668Z,99722.64
2019-02-11T02:42:38.092Z,99721.13
2019-02-11T02:45:08.529Z,99718.73
2019-02-11T02:47:36.960Z,99737.27
2019-02-11T02:50:07.907Z,99740.69
2019-02-11T02:52:36.327Z,99746.80
2019-02-11T02:55:06.169Z,99745.45
2019-02-11T02:57:34.575Z,99749.18
2019-02-11T03:00:03.108Z,99762.97
2019-02-11T03:02:31.541Z,99768.95
2019-02-11T03:04:59.978Z,99775.40
2019-02-11T03:07:28.406Z,99784.42
2019-02-11T03:09:56.855Z,99786.47
2019-02-11T03:12:25.257Z,99796.85
2019-02-11T03:14:53.690Z,99798.22
2019-02-11T03:17:22.098Z,99798.89
2019-02-11T03:19:50.535Z,99809.27
2019-02-11T03:22:18.961Z,99820.16
2019-02-11T03:24:47.380Z,99827.50
2019-02-11T03:27:15.789Z,99827.14
2019-02-11T03:29:44.214Z,99835.30
2019-02-11T03:32:12.609Z,99833.11
2019-02-11T03:34:41.013Z,99839.73
2019-02-11T03:37:09.447Z,99844.01
2019-02-11T03:39:37.851Z,99856.59
2019-02-11T03:42:06.551Z,99860.34
2019-02-11T03:44:34.968Z,99856.42
2019-02-11T03:47:03.385Z,99864.77
2019-02-11T03:49:31.800Z,99875.98
2019-02-11T03:52:00.489Z,99877.19
2019-02-11T03:54:29.872Z,99883.99
2019-02-11T03:56:58.320Z,99890.11
2019-02-11T03:59:26.726Z,99894.02
2019-02-11T04:01:55.135Z,99895.22
2019-02-11T04:04:23.578Z,99914.64
2019-02-11T04:06:52.278Z,99919.03
2019-02-11T04:09:20.697Z,99925.51
2019-02-11T04:11:49.119Z,99933.52
2019-02-11T04:14:24.772Z,99935.23
2019-02-11T04:16:47.678Z,99942.18
2019-02-11T04:19:16.088Z,99947.98
2019-02-11T04:21:44.511Z,99951.38
2019-02-11T04:24:12.943Z,99953.07
2019-02-11T04:26:41.363Z,99958.19
2019-02-11T04:29:09.767Z,99965.33
2019-02-11T04:31:38.202Z,99966.69
2019-02-11T04:34:06.594Z,99976.74
2019-02-11T04:36:35.021Z,99988.67
2019-02-11T04:39:05.100Z,99991.89
2019-02-11T04:41:33.513Z,99995.97
2019-02-11T04:44:01.931Z,99995.64
2019-02-11T04:46:30.371Z,100006.03
2019-02-11T04:48:58.815Z,100006.87
2019-02-11T04:51:27.233Z,100009.27
2019-02-11T04:53:55.639Z,100016.23
2019-02-11T04:56:24.057Z,100018.79
2019-02-11T04:58:52.487Z,100030.55
2019-02-11T05:01:20.901Z,100030.87
2019-02-11T05:03:49.304Z,100030.38
2019-02-11T05:06:17.735Z,100035.99
2019-02-11T05:08:46.326Z,100036.13
2019-02-11T05:11:14.735Z,100042.44
2019-02-11T05:13:43.171Z,100039.55
2019-02-11T05:16:11.595Z,100056.75
2019-02-11T05:18:40.037Z,100051.47
2019-02-11T05:21:08.419Z,100059.97
2019-02-11T05:23:36.849Z,100070.37
2019-02-11T05:26:05.273Z,100077.02
2019-02-11T05:28:33.711Z,100081.76
2019-02-11T05:31:02.147Z,100090.30
2019-02-11T05:33:30.575Z,100094.71
2019-02-11T05:35:59.007Z,100097.94
2019-02-11T05:38:27.410Z,100107.13
2019-02-11T05:40:55.834Z,100113.44
2019-02-11T05:43:24.251Z,100118.52
2019-02-11T05:45:52.680Z,100120.55
2019-02-11T05:48:21.112Z,100121.78
2019-02-11T05:50:49.564Z,100124.63
2019-02-11T05:53:17.965Z,100127.55
2019-02-11T05:55:46.386Z,100125.17
2019-02-11T05:58:14.867Z,100129.25
2019-02-11T06:00:43.294Z,100129.09
2019-02-11T06:03:11.704Z,100131.64
2019-02-11T06:05:40.156Z,100135.06
2019-02-11T06:08:08.576Z,100141.87
2019-02-11T06:10:37.000Z,100147.33
2019-02-11T06:13:05.429Z,100163.84
2019-02-11T06:15:33.840Z,100167.22
2019-02-11T06:18:02.258Z,100175.39
2019-02-11T06:20:30.680Z,100177.12
2019-02-11T06:22:59.127Z,100183.93
2019-02-11T06:25:27.576Z,100191.07
2019-02-11T06:27:55.990Z,100197.88
2019-02-11T06:30:24.415Z,100206.22
2019-02-11T06:32:52.846Z,100205.55
2019-02-11T06:35:21.265Z,100218.64
2019-02-11T06:37:49.722Z,100227.18
2019-02-11T06:40:18.157Z,100231.42
2019-02-11T06:42:46.568Z,100235.84
2019-02-11T06:45:15.006Z,100245.38
2019-02-11T06:47:43.428Z,100246.57
2019-02-11T06:50:16.292Z,100257.14
2019-02-11T06:52:44.728Z,100264.98
2019-02-11T06:55:13.384Z,100268.22
2019-02-11T06:57:41.814Z,100279.48
2019-02-11T07:00:15.363Z,100284.77
2019-02-11T07:02:43.791Z,100293.66
2019-02-11T07:05:12.200Z,100305.54
2019-02-11T07:07:40.602Z,100308.47
2019-02-11T07:10:11.281Z,100316.65
2019-02-11T07:12:39.690Z,100321.94
2019-02-11T07:15:21.328Z,100329.41
2019-02-11T07:17:43.146Z,100336.23
2019-02-11T07:20:11.660Z,100340.31
2019-02-11T07:22:40.072Z,100358.02
2019-02-11T07:25:09.562Z,100359.06
2019-02-11T07:27:37.979Z,100367.61
2019-02-11T07:30:13.596Z,100380.91
2019-02-11T07:32:42.142Z,100383.64
2019-02-11T07:35:10.650Z,100387.02
2019-02-11T07:37:39.100Z,100391.11
2019-02-11T07:40:11.988Z,100395.90
2019-02-11T07:42:51.114Z,100398.09
2019-02-11T07:45:21.177Z,100413.79
2019-02-11T07:47:49.582Z,100418.21
2019-02-11T07:50:18.039Z,100425.89
2019-02-11T07:52:46.456Z,100425.23
2019-02-11T07:55:14.858Z,100427.96
2019-02-11T07:57:43.294Z,100429.48
2019-02-11T08:00:11.864Z,100427.63
2019-02-11T08:02:40.271Z,100442.61
2019-02-11T08:05:08.855Z,100442.95
2019-02-11T08:07:37.302Z,100449.11
2019-02-11T08:10:07.740Z,100457.62
2019-02-11T08:12:36.200Z,100456.26
2019-02-11T08:15:07.659Z,100468.86
2019-02-11T08:17:36.076Z,100477.91
2019-02-11T08:20:07.425Z,100482.33
2019-02-11T08:22:35.840Z,100489.85
2019-02-11T08:25:04.812Z,100486.26
2019-02-11T08:27:33.212Z,100498.36
2019-02-11T08:30:01.644Z,100512.15
2019-02-11T08:32:30.076Z,100517.60
2019-02-11T08:34:58.638Z,100520.33
2019-02-11T08:37:27.083Z,100535.31
2019-02-11T08:39:55.503Z,100531.78
2019-02-11T08:42:23.935Z,100537.57
2019-02-11T08:44:52.364Z,100542.86
2019-02-11T08:47:20.814Z,100546.95
2019-02-11T08:49:49.225Z,100557.02
2019-02-11T08:52:17.675Z,100558.72
2019-02-11T08:54:46.104Z,100563.15
2019-02-11T08:57:14.551Z,100567.61
2019-02-11T08:59:42.959Z,100567.61
2019-02-11T09:02:11.454Z,100576.99
2019-02-11T09:04:39.900Z,100576.34
2019-02-11T09:07:08.302Z,100575.31
2019-02-11T09:09:36.764Z,100577.02
2019-02-11T09:12:05.171Z,100580.27
2019-02-11T09:14:33.577Z,100586.93
2019-02-11T09:17:09.828Z,100586.41
2019-02-11T09:19:32.410Z,100592.72
2019-02-11T09:22:07.336Z,100592.56
2019-02-11T09:24:31.066Z,100596.16
2019-02-11T09:26:59.471Z,100602.82
2019-02-11T09:29:27.920Z,100612.20
2019-02-11T09:31:56.334Z,100612.05
2019-02-11T09:34:24.751Z,100624.84
2019-02-11T09:36:53.186Z,100629.80
2019-02-11T09:39:21.615Z,100632.52
2019-02-11T09:41:50.100Z,100642.78
2019-02-11T09:44:18.544Z,100652.02
2019-02-11T09:46:46.991Z,100648.78
2019-02-11T09:49:15.524Z,100654.12
2019-02-11T09:51:45.266Z,100664.28
2019-02-11T09:54:13.711Z,100669.24
2019-02-11T09:56:42.119Z,100679.16
2019-02-11T09:59:10.614Z,100682.34
2019-02-11T10:01:39.095Z,100681.39
2019-02-11T10:04:07.531Z,100689.91
2019-02-11T10:06:35.936Z,100690.41
2019-02-11T10:09:06.007Z,100696.88
2019-02-11T10:11:34.425Z,100698.71
2019-02-11T10:14:02.882Z,100706.42
2019-02-11T10:16:31.306Z,100711.52
2019-02-11T10:18:59.753Z,100730.59
2019-02-11T10:21:28.157Z,100737.79
2019-02-11T10:23:56.599Z,100739.49
2019-02-11T10:26:25.007Z,100743.03
2019-02-11T10:28:53.534Z,100755.55
2019-02-11T10:31:21.975Z,100761.00
2019-02-11T10:33:50.559Z,100761.53
2019-02-11T10:36:19.359Z,100767.82
2019-02-11T10:38:47.782Z,100771.73
2019-02-11T10:41:16.204Z,100774.30
2019-02-11T10:43:44.678Z,100774.64
2019-02-11T10:46:20.648Z,100774.64
2019-02-11T10:48:43.313Z,100780.63
2019-02-11T10:51:11.751Z,100784.71
2019-02-11T10:53:40.155Z,100794.41
2019-02-11T10:56:08.597Z,100797.98
2019-02-11T10:58:37.017Z,100801.57
2019-02-11T11:01:05.700Z,100800.21
2019-02-11T11:03:34.125Z,100804.80
2019-02-11T11:06:02.714Z,100790.81
2019-02-11T11:08:31.139Z,100798.84
2019-02-11T11:10:59.587Z,100799.77
2019-02-11T11:13:28.071Z,100800.08
2019-02-11T11:15:56.529Z,100798.52
2019-02-11T11:18:24.969Z,100801.02
2019-02-11T11:20:53.391Z,100798.45
2019-02-11T11:23:22.485Z,100808.52
2019-02-11T11:25:50.990Z,100805.95
2019-02-11T11:28:19.427Z,100821.09
2019-02-11T11:30:47.854Z,100817.84
2019-02-11T11:33:16.300Z,100829.27
2019-02-11T11:35:44.709Z,100837.08
2019-02-11T11:38:13.156Z,100833.52
2019-02-11T11:40:41.690Z,100831.28
2019-02-11T11:43:10.127Z,100824.77
2019-02-11T11:45:38.595Z,100830.07
2019-02-11T11:48:07.013Z,100824.95
2019-02-11T11:50:35.498Z,100829.58
2019-02-11T11:53:04.094Z,100830.07
2019-02-11T11:55:32.545Z,100838.40
2019-02-11T11:58:01.275Z,100841.47
2019-02-11T12:00:32.359Z,100840.26
2019-02-11T12:03:04.316Z,100843.52
2019-02-11T12:05:31.018Z,100845.63
2019-02-11T12:07:59.493Z,100842.38
2019-02-11T12:10:27.977Z,100844.46
2019-02-11T12:12:56.424Z,100836.13
2019-02-11T12:15:27.309Z,100837.49
2019-02-11T12:17:55.906Z,100839.01
2019-02-11T12:20:24.316Z,100839.88
2019-02-11T12:22:52.755Z,100843.29
2019-02-11T12:25:21.266Z,100842.80
2019-02-11T12:27:49.798Z,100851.17
2019-02-11T12:30:23.970Z,100856.77
2019-02-11T12:32:54.806Z,100861.23
2019-02-11T12:35:22.856Z,100865.17
2019-02-11T12:37:51.451Z,100870.41
2019-02-11T12:40:20.024Z,100872.30
2019-02-11T12:42:48.501Z,100875.02
2019-02-11T12:45:19.986Z,100875.22
2019-02-11T12:47:48.397Z,100882.75
2019-02-11T12:50:18.355Z,100867.03
2019-02-11T12:52:46.864Z,100883.05
2019-02-11T12:55:16.724Z,100890.94
2019-02-11T12:57:45.197Z,100898.31
2019-02-11T13:00:17.652Z,100893.85
2019-02-11T13:02:46.885Z,100895.02
2019-02-11T13:05:15.874Z,100903.80
2019-02-11T13:07:44.375Z,100897.14
2019-02-11T13:10:16.144Z,100909.75
2019-02-11T13:12:44.646Z,100910.55
2019-02-11T13:15:41.853Z,100908.23
2019-02-11T13:17:47.347Z,100912.18
2019-02-11T13:20:17.173Z,100917.48
2019-02-11T13:22:45.622Z,100919.42
2019-02-11T13:25:16.578Z,100921.27
2019-02-11T13:27:45.030Z,100924.38
2019-02-11T13:30:18.741Z,100931.53
2019-02-11T13:32:47.194Z,100930.52
2019-02-11T13:35:15.849Z,100930.17
2019-02-11T13:37:44.283Z,100936.50
2019-02-11T13:40:13.256Z,100939.11
2019-02-11T13:42:41.843Z,100942.03
2019-02-11T13:45:12.664Z,100945.78
2019-02-11T13:47:53.178Z,100962.00
2019-02-11T13:50:15.515Z,100960.78
2019-02-11T13:52:44.300Z,100964.72
2019-02-11T13:55:12.983Z,100966.43
2019-02-11T13:57:41.482Z,100981.23
2019-02-11T14:00:17.352Z,100983.29
2019-02-11T14:02:51.205Z,100985.03
2019-02-11T14:05:20.052Z,100994.42
2019-02-11T14:07:48.737Z,100999.02
2019-02-11T14:10:17.404Z,101000.72
2019-02-11T14:12:46.988Z,100998.52
2019-02-11T14:15:20.119Z,101004.52
2019-02-11T14:17:45.575Z,100999.58
2019-02-11T14:20:19.235Z,101015.95
2019-02-11T14:22:47.689Z,101015.08
2019-02-11T14:25:16.241Z,101017.16
2019-02-11T14:27:44.834Z,101026.56
2019-02-11T14:30:16.192Z,101031.49
2019-02-11T14:32:44.735Z,101034.38
2019-02-11T14:35:13.812Z,101030.13
2019-02-11T14:37:42.392Z,101024.67
2019-02-11T14:40:11.957Z,101026.76
2019-02-11T14:42:40.391Z,101034.11
2019-02-11T14:45:11.883Z,101038.69
2019-02-11T14:47:44.017Z,101042.41
2019-02-11T14:50:10.739Z,101050.54
2019-02-11T14:52:39.310Z,101049.67
2019-02-11T14:55:09.578Z,101047.52
2019-02-11T14:57:39.016Z,101040.05
2019-02-11T15:00:15.193Z,101051.44
2019-02-11T15:02:43.629Z,101056.84
2019-02-11T15:05:12.072Z,101063.30
2019-02-11T15:07:40.686Z,101069.77
2019-02-11T15:10:11.067Z,101075.56
2019-02-11T15:12:39.486Z,101078.83
2019-02-11T15:15:09.970Z,101086.86
2019-02-11T15:17:39.533Z,101082.77
2019-02-11T15:20:15.483Z,101088.72
2019-02-11T15:22:43.890Z,101090.95
2019-02-11T15:25:17.318Z,101098.12
2019-02-11T15:27:45.737Z,101107.67
2019-02-11T15:30:19.360Z,101108.54
2019-02-11T15:32:47.850Z,101112.11
2019-02-11T15:35:16.379Z,101126.47
2019-02-11T15:37:44.785Z,101124.38
2019-02-11T15:40:21.986Z,101126.13
2019-02-11T15:42:50.411Z,101124.77
2019-02-11T15:45:18.893Z,101124.83
2019-02-11T15:47:47.319Z,101126.34
2019-02-11T15:50:19.444Z,101123.75
2019-02-11T15:52:47.900Z,101130.38
2019-02-11T15:55:18.415Z,101140.41
2019-02-11T15:57:46.883Z,101157.12
2019-02-11T16:00:20.171Z,101160.00
2019-02-11T16:02:48.590Z,101170.56
2019-02-11T16:05:17.382Z,101172.95
2019-02-11T16:07:46.032Z,101181.97
2019-02-11T16:10:20.048Z,101178.89
2019-02-11T16:12:48.496Z,101178.02
2019-02-11T16:15:16.912Z,101181.77
2019-02-11T16:17:45.317Z,101180.40
2019-02-11T16:20:15.023Z,101188.23
2019-02-11T16:22:43.438Z,101189.22
2019-02-11T16:25:15.546Z,101196.42
2019-02-11T16:27:43.948Z,101199.78
2019-02-11T16:30:20.164Z,101203.00
2019-02-11T16:32:48.975Z,101201.14
2019-02-11T16:35:20.327Z,101217.52
2019-02-11T16:37:48.778Z,101212.06
2019-02-11T16:40:19.891Z,101215.42
2019-02-11T16:42:48.396Z,101215.42
2019-02-11T16:45:16.843Z,101213.70
2019-02-11T16:47:45.242Z,101210.49
2019-02-11T16:50:13.829Z,101217.31
2019-02-11T16:52:42.276Z,101225.60
2019-02-11T16:55:12.023Z,101240.98
2019-02-11T16:57:40.530Z,101242.45
2019-02-11T17:00:19.563Z,101242.95
2019-02-11T17:02:47.970Z,101245.33
2019-02-11T17:05:16.470Z,101244.31
2019-02-11T17:07:44.920Z,101254.88
2019-02-11T17:10:14.466Z,101258.09
2019-02-11T17:12:42.902Z,101272.59
2019-02-11T17:15:13.819Z,101272.25
2019-02-11T17:17:42.252Z,101284.52
2019-02-11T17:20:12.620Z,101295.44
2019-02-11T17:22:41.060Z,101296.41
2019-02-11T17:25:10.847Z,101298.94
2019-02-11T17:27:39.441Z,101307.47
2019-02-11T17:30:13.963Z,101315.78
2019-02-11T17:32:42.441Z,101317.15
2019-02-11T17:35:11.030Z,101315.44
2019-02-11T17:37:39.483Z,101323.97
2019-02-11T17:40:13.219Z,101333.66
2019-02-11T17:42:41.810Z,101334.53
2019-02-11T17:45:15.862Z,101343.55
2019-02-11T17:47:44.265Z,101357.71
2019-02-11T17:50:13.393Z,101357.33
2019-02-11T17:52:41.763Z,101356.63
2019-02-11T17:55:13.072Z,101360.58
2019-02-11T17:57:41.492Z,101365.16
2019-02-11T18:00:14.603Z,101368.90
2019-02-11T18:02:43.040Z,101385.12
2019-02-11T18:05:11.554Z,101393.79
2019-02-11T18:07:39.970Z,101404.70
2019-02-11T18:10:08.386Z,101405.71
2019-02-11T18:12:36.822Z,101414.25
2019-02-11T18:15:08.188Z,101422.56
2019-02-11T18:17:36.624Z,101434.70
2019-02-11T18:20:07.976Z,101443.02
2019-02-11T18:22:36.416Z,101443.50
2019-02-11T18:25:07.189Z,101452.08
2019-02-11T18:27:35.625Z,101454.41
2019-02-11T18:30:06.336Z,101469.41
2019-02-11T18:32:34.764Z,101483.05
2019-02-11T18:35:03.592Z,101486.79
2019-02-11T18:37:32.013Z,101504.30
2019-02-11T18:40:00.423Z,101511.95
2019-02-11T18:42:28.854Z,101515.70
2019-02-11T18:44:57.287Z,101523.73
2019-02-11T18:47:25.704Z,101518.16
2019-02-11T18:49:54.144Z,101522.02
2019-02-11T18:52:22.594Z,101524.09
2019-02-11T18:54:51.038Z,101529.41
2019-02-11T18:57:19.458Z,101532.27
2019-02-11T18:59:47.907Z,101540.98
2019-02-11T19:02:16.793Z,101539.23
2019-02-11T19:04:45.192Z,101541.95
2019-02-11T19:07:13.632Z,101551.02
2019-02-11T19:09:42.098Z,101547.80
2019-02-11T19:12:10.572Z,101556.11
2019-02-11T19:14:38.998Z,101561.44
2019-02-11T19:17:07.435Z,101559.19
2019-02-11T19:19:43.051Z,101570.10
2019-02-11T19:22:06.118Z,101572.83
2019-02-11T19:24:34.516Z,101576.92
2019-02-11T19:27:02.938Z,101578.77
2019-02-11T19:29:31.380Z,101582.02
2019-02-11T19:31:59.798Z,101592.05
2019-02-11T19:34:28.246Z,101588.84
2019-02-11T19:36:56.679Z,101595.79
2019-02-11T19:39:25.138Z,101605.06
2019-02-11T19:41:53.565Z,101618.31
2019-02-11T19:44:21.976Z,101620.20
2019-02-11T19:46:50.415Z,101622.92
2019-02-11T19:49:18.821Z,101627.02
2019-02-11T19:51:47.228Z,101628.38
2019-02-11T19:54:15.682Z,101634.94
2019-02-11T19:56:44.129Z,101637.27
2019-02-11T19:59:12.538Z,101646.90
2019-02-11T20:01:41.028Z,101642.19
2019-02-11T20:04:09.398Z,101644.19
2019-02-11T20:06:37.845Z,101641.33
2019-02-11T20:09:07.005Z,101645.29
2019-02-11T20:11:35.416Z,101642.43
2019-02-11T20:14:03.916Z,101648.23
2019-02-11T20:16:32.330Z,101656.42
2019-02-11T20:19:00.782Z,101656.91
2019-02-11T20:21:29.270Z,101659.89
2019-02-11T20:23:57.721Z,101662.62
2019-02-11T20:26:26.143Z,101669.45
2019-02-11T20:28:54.580Z,101671.78
2019-02-11T20:31:23.018Z,101671.08
2019-02-11T20:33:51.430Z,101680.23
2019-02-11T20:36:19.879Z,101684.98
2019-02-11T20:38:48.303Z,101684.10
2019-02-11T20:41:16.748Z,101688.20
2019-02-11T20:43:45.157Z,101686.05
2019-02-11T20:46:13.578Z,101686.05
2019-02-11T20:48:42.177Z,101681.13
2019-02-11T20:51:10.607Z,101683.45
2019-02-11T20:53:39.073Z,101678.52
2019-02-11T20:56:07.472Z,101681.61
2019-02-11T20:58:35.919Z,101682.62
2019-02-11T21:01:04.320Z,101673.91
2019-02-11T21:03:32.765Z,101664.01
2019-02-11T21:06:01.202Z,101669.11
2019-02-11T21:08:29.623Z,101657.19
2019-02-11T21:10:58.037Z,101652.74
2019-02-11T21:13:26.472Z,101663.66
2019-02-11T21:15:54.903Z,101670.47
2019-02-11T21:18:23.366Z,101669.59
2019-02-11T21:20:51.817Z,101670.47
2019-02-11T21:23:20.226Z,101663.27
2019-02-11T21:25:48.661Z,101661.16
2019-02-11T21:28:17.076Z,101656.58
2019-02-11T21:30:45.508Z,101655.57
2019-02-11T21:33:13.940Z,101665.64
2019-02-11T21:35:42.358Z,101677.03
2019-02-11T21:38:10.799Z,101673.43
2019-02-11T21:40:39.235Z,101681.61
2019-02-11T21:43:07.693Z,101679.54
2019-02-11T21:45:36.119Z,101690.45
2019-02-11T21:48:04.539Z,101694.02
2019-02-11T21:50:32.981Z,101697.75
2019-02-11T21:53:01.396Z,101703.20
2019-02-11T21:55:29.835Z,101706.95
2019-02-11T21:57:58.237Z,101721.81
2019-02-11T22:00:26.663Z,101734.70
2019-02-11T22:02:55.111Z,101750.06
2019-02-11T22:05:23.529Z,101758.77
2019-02-11T22:07:51.950Z,101771.52
2019-02-11T22:10:22.541Z,101786.53
2019-02-11T22:12:50.961Z,101780.72
2019-02-11T22:15:19.463Z,101792.11
2019-02-11T22:17:47.917Z,101789.87
2019-02-11T22:20:20.929Z,101793.96
2019-02-11T22:22:49.716Z,101802.14
2019-02-11T22:25:18.170Z,101805.77
2019-02-11T22:27:46.610Z,101809.23
2019-02-11T22:30:18.140Z,101816.05
2019-02-11T22:32:46.579Z,101816.44
2019-02-11T22:35:14.989Z,101815.46
2019-02-11T22:37:43.441Z,101817.82
2019-02-11T22:40:14.100Z,101819.42
2019-02-11T22:42:42.513Z,101823.98
2019-02-11T22:45:19.754Z,101826.48
2019-02-11T22:47:48.292Z,101830.58
2019-02-11T22:50:16.721Z,101836.16
2019-02-11T22:52:45.206Z,101831.42
2019-02-11T22:55:14.861Z,101838.75
2019-02-11T22:57:43.300Z,101839.24
2019-02-11T23:00:40.547Z,101837.52
2019-02-11T23:03:08.994Z,101840.25
2019-02-11T23:05:37.593Z,101836.25
2019-02-11T23:08:06.039Z,101827.59
2019-02-11T23:10:34.493Z,101837.00
2019-02-11T23:13:02.901Z,101840.34
2019-02-11T23:15:31.575Z,101844.83
2019-02-11T23:17:59.983Z,101845.18
2019-02-11T23:20:28.575Z,101843.59
2019-02-11T23:22:57.014Z,101851.25
2019-02-11T23:25:25.424Z,101860.44
2019-02-11T23:27:53.853Z,101872.22
2019-02-11T23:30:22.325Z,101881.25
2019-02-11T23:32:50.755Z,101899.36
2019-02-11T23:35:19.211Z,101906.80
2019-02-11T23:37:47.639Z,101899.97
2019-02-11T23:40:16.049Z,101916.21
2019-02-11T23:42:44.546Z,101910.40
2019-02-11T23:45:13.037Z,101909.88
2019-02-11T23:47:41.481Z,101906.80
2019-02-11T23:50:11.462Z,101899.61
2019-02-11T23:52:39.900Z,101902.34
2019-02-11T23:55:11.367Z,101912.37
2019-02-11T23:57:39.775Z,101912.73
